Accueil
METAR-TAF:

METAR-TAF

Aéroports :

Aéroport de Hakodate

Hakodate, Japon

latitude: 41-46N, longitude: 140-49E, altitude: 33 m

Observation

Le bulletin a été fait il y a 41 minutes, à 01:00 UTC
Vent 10 kt de sud/sud-ouest
Température 18°C
Humidité 73%
Pression 1006 hPa
Visibilité 10 km ou plus
Quelques nuages à une hauteur de 2000 ft
Nuages épars à une hauteur de 10000 ft
Nuages fragmentés à une hauteur de 16000 ft

METAR: RJCH 030100Z 20010KT 9999 FEW020 SCT100 BKN160 18/13 Q1006

Heure: 10:41 (01:41 UTC)

Prévision

Le bulletin a été fait il y a 2 heures et 27 minutes, à 23:14 UTC
Prévision valable du 03 à 00 UTC au 04 à 06 UTC
Vent 5 kt de sud
Visibilité 10 km ou plus
Quelques nuages à une hauteur de 1500 ft
Temporairement
du 03 à 18 UTC au 04 à 00 UTC
Quelques nuages à une hauteur de 300 ft
Nuages fragmentés à une hauteur de 600 ft

TAF: RJCH 022314Z 0300/0406 19005KT 9999 FEW015 TEMPO 0318/0400 FEW003 BKN006

Observations et prévisions météorologiques de plus de 4000 aéroports (messages METAR et TAF).

Les stations disponibles sont représentées par des disques jaunes et rouges sur la carte.

Passer la souris dessus pour voir le nom de la station.

Cliquer dessus pour voir les observations et prévisions météorologiques.

Pour changer de carte: cliquez sur les boutons verts avec une croix noire pour zoomer, sur le bouton vert avec un tiret pour effectuer un zoom arrière, ou sur les flèches vertes pour les cartes adjacentes.


METAR-TAF: